Time,TemperatureF,DewpointF,PressureIn,WindDirection,WindDirectionDegrees,WindSpeedMPH,WindSpeedGustMPH,Humidity,HourlyPrecipIn,Conditions,Clouds,dailyrainin,SolarRadiationWatts/m^2,SoftwareType,DateUTC
2013-06-02 00:00:00,68.2,64.5,30.13,NW,311,2.0,2.0,88,0.00,,,0.00,0,Wunderground v.1.15,2013-06-02 10:00:00,
2013-06-02 00:10:00,66.9,63.9,30.13,NW,313,2.0,4.0,90,0.00,,,0.00,0,Wunderground v.1.15,2013-06-02 10:10:00,
2013-06-02 00:20:00,67.5,65.4,30.13,NW,313,1.0,1.0,93,0.00,,,0.00,0,Wunderground v.1.15,2013-06-02 10:20:00,
2013-06-02 00:25:00,68.4,66.9,30.13,NE,55,1.0,1.0,95,0.00,,,0.00,0,Wunderground v.1.15,2013-06-02 10:25:00,
2013-06-02 00:30:00,68.4,66.6,30.13,NE,55,2.0,2.0,94,0.00,,,0.00,0,Wunderground v.1.15,2013-06-02 10:30:00,
2013-06-02 00:39:00,68.4,66.9,30.13,NE,55,0.0,0.0,95,0.00,,,0.00,0,Wunderground v.1.15,2013-06-02 10:39:00,
2013-06-02 00:45:00,68.7,67.2,30.13,NE,55,0.0,0.0,95,0.00,,,0.00,0,Wunderground v.1.15,2013-06-02 10:45:00,
2013-06-02 00:50:00,69.0,67.5,30.12,NE,55,0.0,0.0,95,0.00,,,0.00,0,Wunderground v.1.15,2013-06-02 10:50:00,
2013-06-02 00:55:00,69.3,68.1,30.12,North,5,1.0,3.0,96,0.00,,,0.00,0,Wunderground v.1.15,2013-06-02 10:55:00,
2013-06-02 01:00:00,69.9,69.0,30.12,North,5,1.0,4.0,97,0.00,,,0.00,0,Wunderground v.1.15,2013-06-02 11:00:00,
2013-06-02 01:10:00,69.3,68.1,30.11,North,5,3.0,3.0,96,0.00,,,0.00,0,Wunderground v.1.15,2013-06-02 11:10:00,
2013-06-02 01:15:00,68.8,67.3,30.11,North,5,2.0,3.0,95,0.00,,,0.00,0,Wunderground v.1.15,2013-06-02 11:15:00,
2013-06-02 01:24:00,68.2,67.0,30.10,WNW,302,2.0,6.0,96,0.00,,,0.00,0,Wunderground v.1.15,2013-06-02 11:24:00,
2013-06-02 01:29:00,68.4,67.5,30.09,WNW,297,4.0,4.0,97,0.00,,,0.00,0,Wunderground v.1.15,2013-06-02 11:29:00,
2013-06-02 01:35:00,68.2,67.0,30.09,WNW,298,3.0,4.0,96,0.00,,,0.00,0,Wunderground v.1.15,2013-06-02 11:35:00,
2013-06-02 01:40:00,68.1,66.9,30.09,WNW,300,3.0,3.0,96,0.00,,,0.00,0,Wunderground v.1.15,2013-06-02 11:40:00,
2013-06-02 01:49:00,68.1,66.6,30.09,West,277,4.0,4.0,95,0.00,,,0.00,0,Wunderground v.1.15,2013-06-02 11:49:00,
2013-06-02 01:55:00,68.0,66.5,30.09,West,278,2.0,4.0,95,0.00,,,0.00,0,Wunderground v.1.15,2013-06-02 11:55:00,
2013-06-02 02:00:00,67.9,66.4,30.09,West,278,1.0,2.0,95,0.00,,,0.00,0,Wunderground v.1.15,2013-06-02 12:00:00,
2013-06-02 02:10:00,67.2,65.4,30.08,NW,315,3.0,3.0,94,0.00,,,0.00,0,Wunderground v.1.15,2013-06-02 12:10:00,
2013-06-02 02:15:00,67.4,65.6,30.08,NW,315,4.0,4.0,94,0.00,,,0.00,0,Wunderground v.1.15,2013-06-02 12:15:00,
2013-06-02 02:20:00,67.6,65.2,30.08,WNW,294,4.0,4.0,92,0.00,,,0.00,0,Wunderground v.1.15,2013-06-02 12:20:00,
2013-06-02 02:25:00,67.7,65.0,30.08,WNW,297,3.0,4.0,91,0.00,,,0.00,0,Wunderground v.1.15,2013-06-02 12:25:00,
2013-06-02 02:35:00,67.6,64.2,30.07,WNW,298,2.0,3.0,89,0.00,,,0.00,0,Wunderground v.1.15,2013-06-02 12:35:00,
2013-06-02 02:40:00,67.5,64.1,30.07,WNW,299,2.0,4.0,89,0.00,,,0.00,0,Wunderground v.1.15,2013-06-02 12:40:00,
2013-06-02 02:45:00,67.3,63.9,30.06,NW,313,3.0,4.0,89,0.00,,,0.00,0,Wunderground v.1.15,2013-06-02 12:45:00,
2013-06-02 02:50:00,67.3,63.9,30.07,NW,312,2.0,2.0,89,0.00,,,0.00,0,Wunderground v.1.15,2013-06-02 12:50:00,
2013-06-02 02:55:00,67.0,63.6,30.06,NW,312,1.0,2.0,89,0.00,,,0.00,0,Wunderground v.1.15,2013-06-02 12:55:00,
2013-06-02 03:00:00,66.5,63.2,30.06,NW,312,0.0,2.0,89,0.00,,,0.00,0,Wunderground v.1.15,2013-06-02 13:00:00,
2013-06-02 03:10:00,65.7,62.4,30.06,NW,312,1.0,1.0,89,0.00,,,0.00,0,Wunderground v.1.15,2013-06-02 13:10:00,
2013-06-02 03:15:00,65.3,62.3,30.06,NW,312,1.0,1.0,90,0.00,,,0.00,0,Wunderground v.1.15,2013-06-02 13:15:00,
2013-06-02 03:20:00,65.4,62.4,30.06,NW,312,0.0,0.0,90,0.00,,,0.00,0,Wunderground v.1.15,2013-06-02 13:20:00,
2013-06-02 03:30:00,65.4,62.4,30.07,NW,312,2.0,2.0,90,0.00,,,0.00,0,Wunderground v.1.15,2013-06-02 13:30:00,
2013-06-02 03:35:00,65.4,62.4,30.07,NW,312,1.0,2.0,90,0.00,,,0.00,0,Wunderground v.1.15,2013-06-02 13:35:00,
2013-06-02 03:40:00,65.4,62.7,30.07,NW,312,1.0,1.0,91,0.00,,,0.00,0,Wunderground v.1.15,2013-06-02 13:40:00,
2013-06-02 03:49:00,65.5,63.1,30.07,NW,313,2.0,3.0,92,0.00,,,0.00,0,Wunderground v.1.15,2013-06-02 13:49:00,
2013-06-02 03:55:00,65.8,63.4,30.06,NW,309,2.0,3.0,92,0.00,,,0.00,0,Wunderground v.1.15,2013-06-02 13:55:00,
2013-06-02 04:00:00,66.3,63.6,30.07,NW,309,1.0,2.0,91,0.00,,,0.00,0,Wunderground v.1.15,2013-06-02 14:00:00,
2013-06-02 04:10:00,67.0,64.0,30.07,NW,311,3.0,3.0,90,0.00,,,0.00,0,Wunderground v.1.15,2013-06-02 14:10:00,
2013-06-02 04:15:00,67.1,64.1,30.07,NW,311,3.0,3.0,90,0.00,,,0.00,0,Wunderground v.1.15,2013-06-02 14:15:00,
2013-06-02 04:25:00,67.1,64.1,30.07,NW,311,1.0,5.0,90,0.00,,,0.00,0,Wunderground v.1.15,2013-06-02 14:25:00,
2013-06-02 04:30:00,67.0,64.3,30.07,NW,312,2.0,4.0,91,0.00,,,0.00,0,Wunderground v.1.15,2013-06-02 14:30:00,
2013-06-02 04:35:00,67.4,64.7,30.07,NW,312,3.0,4.0,91,0.00,,,0.00,0,Wunderground v.1.15,2013-06-02 14:35:00,
2013-06-02 04:40:00,67.5,64.5,30.07,NW,313,2.0,2.0,90,0.00,,,0.00,0,Wunderground v.1.15,2013-06-02 14:40:00,
2013-06-02 04:49:00,67.4,64.7,30.07,NW,308,1.0,2.0,91,0.00,,,0.00,0,Wunderground v.1.15,2013-06-02 14:49:00,
2013-06-02 04:55:00,67.3,64.6,30.07,NW,308,1.0,2.0,91,0.00,,,0.00,0,Wunderground v.1.15,2013-06-02 14:55:00,
2013-06-02 05:00:00,67.2,64.5,30.07,NW,308,1.0,1.0,91,0.00,,,0.00,0,Wunderground v.1.15,2013-06-02 15:00:00,
2013-06-02 05:10:00,67.3,64.3,30.06,NW,313,1.0,1.0,90,0.00,,,0.00,0,Wunderground v.1.15,2013-06-02 15:10:00,
2013-06-02 05:15:00,66.8,63.8,30.07,NW,313,1.0,1.0,90,0.00,,,0.00,0,Wunderground v.1.15,2013-06-02 15:15:00,
2013-06-02 05:24:00,65.7,63.0,30.07,NW,313,0.0,0.0,91,0.00,,,0.00,0,Wunderground v.1.15,2013-06-02 15:24:00,
2013-06-02 05:30:00,65.1,62.7,30.07,NW,313,0.0,0.0,92,0.00,,,0.00,0,Wunderground v.1.15,2013-06-02 15:30:00,
2013-06-02 05:35:00,64.7,62.3,30.07,NW,313,0.0,0.0,92,0.00,,,0.00,0,Wunderground v.1.15,2013-06-02 15:35:00,
2013-06-02 05:40:00,64.6,62.2,30.07,NW,313,1.0,1.0,92,0.00,,,0.00,0,Wunderground v.1.15,2013-06-02 15:40:00,
2013-06-02 05:50:00,65.0,62.3,30.07,NW,313,1.0,1.0,91,0.00,,,0.00,9,Wunderground v.1.15,2013-06-02 15:50:00,
2013-06-02 05:55:00,65.1,62.4,30.07,NW,313,0.0,1.0,91,0.00,,,0.00,14,Wunderground v.1.15,2013-06-02 15:55:00,
2013-06-02 06:00:00,64.8,62.1,30.07,NW,313,0.0,0.0,91,0.00,,,0.00,19,Wunderground v.1.15,2013-06-02 16:00:00,
2013-06-02 06:10:00,65.2,62.2,30.08,NW,313,1.0,3.0,90,0.00,,,0.00,26,Wunderground v.1.15,2013-06-02 16:10:00,
2013-06-02 06:15:00,65.7,62.7,30.08,NW,313,2.0,3.0,90,0.00,,,0.00,33,Wunderground v.1.15,2013-06-02 16:15:00,
2013-06-02 06:24:00,66.3,63.3,30.08,NW,313,0.0,2.0,90,0.00,,,0.00,58,Wunderground v.1.15,2013-06-02 16:24:00,
2013-06-02 06:30:00,66.4,63.4,30.08,NW,313,0.0,0.0,90,0.00,,,0.00,72,Wunderground v.1.15,2013-06-02 16:30:00,
2013-06-02 06:35:00,66.8,64.1,30.08,NW,313,0.0,0.0,91,0.00,,,0.00,83,Wunderground v.1.15,2013-06-02 16:35:00,
2013-06-02 06:40:00,67.1,64.1,30.08,NW,313,1.0,1.0,90,0.00,,,0.00,105,Wunderground v.1.15,2013-06-02 16:40:00,
2013-06-02 06:45:00,67.7,64.7,30.08,NW,313,1.0,1.0,90,0.00,,,0.00,128,Wunderground v.1.15,2013-06-02 16:45:00,
2013-06-02 06:54:00,68.6,65.9,30.08,NW,313,0.0,0.0,91,0.00,,,0.00,176,Wunderground v.1.15,2013-06-02 16:54:00,
2013-06-02 07:00:00,69.3,66.6,30.07,NW,313,0.0,0.0,91,0.00,,,0.00,199,Wunderground v.1.15,2013-06-02 17:00:00,
2013-06-02 07:09:00,70.3,67.5,30.08,NW,313,0.0,0.0,91,0.00,,,0.00,239,Wunderground v.1.15,2013-06-02 17:09:00,
2013-06-02 07:15:00,71.1,68.3,30.08,NW,313,0.0,0.0,91,0.00,,,0.00,260,Wunderground v.1.15,2013-06-02 17:15:00,
2013-06-02 07:20:00,71.9,67.8,30.08,NW,313,0.0,0.0,87,0.00,,,0.00,279,Wunderground v.1.15,2013-06-02 17:20:00,
2013-06-02 07:25:00,72.9,68.5,30.08,NW,313,0.0,0.0,86,0.00,,,0.00,295,Wunderground v.1.15,2013-06-02 17:25:00,
2013-06-02 07:30:00,73.8,67.6,30.08,NW,313,0.0,0.0,81,0.00,,,0.00,320,Wunderground v.1.15,2013-06-02 17:30:00,
2013-06-02 07:35:00,74.9,67.9,30.08,NW,313,0.0,0.0,79,0.00,,,0.00,336,Wunderground v.1.15,2013-06-02 17:35:00,
2013-06-02 07:45:00,76.2,68.8,30.09,NW,313,0.0,3.0,78,0.00,,,0.00,374,Wunderground v.1.15,2013-06-02 17:45:00,
2013-06-02 07:50:00,76.8,69.8,30.09,NW,313,0.0,0.0,79,0.00,,,0.00,396,Wunderground v.1.15,2013-06-02 17:50:00,
2013-06-02 07:55:00,77.4,70.4,30.09,NW,313,0.0,3.0,79,0.00,,,0.00,413,Wunderground v.1.15,2013-06-02 17:55:00,
2013-06-02 08:00:00,77.7,70.7,30.09,WNW,303,1.0,3.0,79,0.00,,,0.00,434,Wunderground v.1.15,2013-06-02 18:00:00,
2013-06-02 08:10:00,78.4,71.0,30.09,WNW,303,0.0,0.0,78,0.00,,,0.00,471,Wunderground v.1.15,2013-06-02 18:10:00,
2013-06-02 08:15:00,78.8,71.4,30.09,WNW,303,0.0,0.0,78,0.00,,,0.00,492,Wunderground v.1.15,2013-06-02 18:15:00,
2013-06-02 08:24:00,79.4,71.9,30.09,WNW,303,1.0,3.0,78,0.00,,,0.00,513,Wunderground v.1.15,2013-06-02 18:24:00,
2013-06-02 08:35:00,79.3,72.6,30.09,West,264,2.0,2.0,80,0.00,,,0.00,492,Wunderground v.1.15,2013-06-02 18:35:00,
2013-06-02 08:40:00,79.4,72.7,30.09,West,263,0.0,0.0,80,0.00,,,0.00,561,Wunderground v.1.15,2013-06-02 18:40:00,
2013-06-02 08:45:00,79.9,73.9,30.09,SE,141,1.0,1.0,82,0.00,,,0.00,547,Wunderground v.1.15,2013-06-02 18:45:00,
2013-06-02 08:54:00,79.7,74.1,30.10,ESE,107,4.0,8.0,83,0.00,,,0.00,629,Wunderground v.1.15,2013-06-02 18:54:00,
2013-06-02 09:00:00,79.7,74.4,30.10,ESE,117,5.0,5.0,84,0.00,,,0.00,640,Wunderground v.1.15,2013-06-02 19:00:00,
2013-06-02 09:09:00,80.0,74.7,30.09,East,96,4.0,7.0,84,0.00,,,0.00,663,Wunderground v.1.15,2013-06-02 19:09:00,
2013-06-02 09:15:00,80.1,74.8,30.09,SE,130,6.0,9.0,84,0.00,,,0.00,673,Wunderground v.1.15,2013-06-02 19:15:00,
2013-06-02 09:20:00,79.2,74.6,30.10,ESE,112,8.0,8.0,86,0.00,,,0.00,814,Wunderground v.1.15,2013-06-02 19:20:00,
2013-06-02 09:25:00,78.4,74.5,30.10,East,101,8.0,8.0,88,0.00,,,0.00,877,Wunderground v.1.15,2013-06-02 19:25:00,
2013-06-02 09:34:00,77.9,74.1,30.10,East,92,7.0,9.0,88,0.00,,,0.00,364,Wunderground v.1.15,2013-06-02 19:34:00,
2013-06-02 09:40:00,77.6,74.1,30.10,East,87,7.0,7.0,89,0.00,,,0.00,320,Wunderground v.1.15,2013-06-02 19:40:00,
2013-06-02 09:45:00,77.7,74.5,30.10,SE,133,6.0,11.0,90,0.00,,,0.00,932,Wunderground v.1.15,2013-06-02 19:45:00,
2013-06-02 09:50:00,77.6,74.4,30.10,East,98,8.0,8.0,90,0.00,,,0.00,1016,Wunderground v.1.15,2013-06-02 19:50:00,
2013-06-02 09:55:00,78.2,75.0,30.10,ENE,74,6.0,12.0,90,0.00,,,0.00,446,Wunderground v.1.15,2013-06-02 19:55:00,
2013-06-02 10:00:00,78.3,74.8,30.10,NE,36,7.0,11.0,89,0.00,,,0.00,1132,Wunderground v.1.15,2013-06-02 20:00:00,
2013-06-02 10:09:00,78.5,75.0,30.10,ENE,65,6.0,9.0,89,0.00,,,0.00,381,Wunderground v.1.15,2013-06-02 20:09:00,
2013-06-02 10:15:00,77.5,74.7,30.11,NE,38,7.0,9.0,91,0.00,,,0.00,279,Wunderground v.1.15,2013-06-02 20:15:00,
2013-06-02 10:20:00,76.7,74.2,30.11,East,86,8.0,8.0,92,0.00,,,0.00,207,Wunderground v.1.15,2013-06-02 20:20:00,
2013-06-02 10:25:00,76.1,73.9,30.11,ESE,103,6.0,8.0,93,0.00,,,0.00,155,Wunderground v.1.15,2013-06-02 20:25:00,
2013-06-02 10:30:00,75.5,73.7,30.11,East,88,5.0,6.0,94,0.00,,,0.00,116,Wunderground v.1.15,2013-06-02 20:30:00,
2013-06-02 10:40:00,74.5,73.0,30.10,NNE,25,7.0,7.0,95,0.00,,,0.00,271,Wunderground v.1.15,2013-06-02 20:40:00,
2013-06-02 10:45:00,74.5,73.0,30.11,ENE,64,7.0,7.0,95,0.00,,,0.00,232,Wunderground v.1.15,2013-06-02 20:45:00,
2013-06-02 10:50:00,74.7,73.5,30.10,North,360,8.0,10.0,96,0.00,,,0.00,237,Wunderground v.1.15,2013-06-02 20:50:00,
2013-06-02 11:00:00,75.3,73.8,30.10,ESE,123,7.0,7.0,95,0.00,,,0.00,339,Wunderground v.1.15,2013-06-02 21:00:00,
2013-06-02 11:10:00,75.8,73.9,30.09,East,90,9.0,9.0,94,0.00,,,0.00,390,Wunderground v.1.15,2013-06-02 21:10:00,
2013-06-02 11:15:00,76.2,74.3,30.09,ENE,67,9.0,9.0,94,0.00,,,0.00,404,Wunderground v.1.15,2013-06-02 21:15:00,
2013-06-02 11:20:00,76.1,73.6,30.09,ENE,76,10.0,13.0,92,0.00,,,0.00,454,Wunderground v.1.15,2013-06-02 21:20:00,
2013-06-02 11:25:00,76.0,73.5,30.10,NE,50,11.0,13.0,92,0.00,,,0.00,490,Wunderground v.1.15,2013-06-02 21:25:00,
2013-06-02 11:34:00,76.0,73.5,30.09,East,98,9.0,13.0,92,0.00,,,0.00,446,Wunderground v.1.15,2013-06-02 21:34:00,
2013-06-02 11:40:00,76.2,73.4,30.09,NE,49,9.0,13.0,91,0.00,,,0.00,427,Wunderground v.1.15,2013-06-02 21:40:00,
2013-06-02 11:45:00,76.3,73.1,30.10,ESE,111,10.0,15.0,90,0.00,,,0.00,424,Wunderground v.1.15,2013-06-02 21:45:00,
2013-06-02 11:50:00,76.4,73.2,30.10,ENE,66,10.0,10.0,90,0.00,,,0.00,318,Wunderground v.1.15,2013-06-02 21:50:00,
2013-06-02 12:00:00,75.9,73.4,30.10,ENE,71,9.0,9.0,92,0.00,,,0.00,299,Wunderground v.1.15,2013-06-02 22:00:00,
2013-06-02 12:10:00,76.3,73.8,30.09,ESE,117,7.0,14.0,92,0.00,,,0.00,330,Wunderground v.1.15,2013-06-02 22:10:00,
2013-06-02 12:15:00,76.6,73.8,30.09,ENE,77,7.0,14.0,91,0.00,,,0.00,478,Wunderground v.1.15,2013-06-02 22:15:00,
2013-06-02 12:20:00,76.8,73.6,30.09,East,88,7.0,10.0,90,0.00,,,0.00,346,Wunderground v.1.15,2013-06-02 22:20:00,
2013-06-02 12:29:00,76.7,73.5,30.09,ENE,57,9.0,9.0,90,0.00,,,0.00,355,Wunderground v.1.15,2013-06-02 22:29:00,
2013-06-02 12:35:00,76.9,73.7,30.09,ENE,74,9.0,13.0,90,0.00,,,0.00,578,Wunderground v.1.15,2013-06-02 22:35:00,
2013-06-02 12:40:00,77.3,73.8,30.09,East,79,11.0,11.0,89,0.00,,,0.00,578,Wunderground v.1.15,2013-06-02 22:40:00,
2013-06-02 12:49:00,77.2,73.4,30.08,ENE,57,9.0,9.0,88,0.00,,,0.00,315,Wunderground v.1.15,2013-06-02 22:49:00,
2013-06-02 12:55:00,76.9,73.4,30.09,ENE,77,9.0,9.0,89,0.00,,,0.00,380,Wunderground v.1.15,2013-06-02 22:55:00,
2013-06-02 13:00:00,77.0,73.5,30.09,ESE,107,8.0,9.0,89,0.00,,,0.00,323,Wunderground v.1.15,2013-06-02 23:00:00,
2013-06-02 13:10:00,76.5,73.7,30.09,East,84,10.0,10.0,91,0.00,,,0.00,269,Wunderground v.1.15,2013-06-02 23:10:00,
2013-06-02 13:15:00,76.1,73.6,30.09,ESE,106,10.0,13.0,92,0.00,,,0.00,339,Wunderground v.1.15,2013-06-02 23:15:00,
2013-06-02 13:20:00,75.9,73.7,30.09,ENE,58,9.0,11.0,93,0.00,,,0.00,204,Wunderground v.1.15,2013-06-02 23:20:00,
2013-06-02 13:29:00,75.3,72.8,30.09,ESE,111,10.0,10.0,92,0.00,,,0.00,257,Wunderground v.1.15,2013-06-02 23:29:00,
2013-06-02 13:35:00,75.2,73.0,30.09,East,96,10.0,12.0,93,0.00,,,0.00,227,Wunderground v.1.15,2013-06-02 23:35:00,
2013-06-02 13:40:00,75.1,72.6,30.09,ESE,120,9.0,9.0,92,0.00,,,0.00,218,Wunderground v.1.15,2013-06-02 23:40:00,
2013-06-02 13:49:00,74.7,72.2,30.09,SSE,148,10.0,10.0,92,0.00,,,0.00,185,Wunderground v.1.15,2013-06-02 23:49:00,
2013-06-02 13:55:00,74.7,72.2,30.08,SE,124,9.0,13.0,92,0.00,,,0.00,171,Wunderground v.1.15,2013-06-02 23:55:00,
2013-06-02 14:00:00,74.8,72.3,30.08,SSE,147,7.0,7.0,92,0.00,,,0.00,141,Wunderground v.1.15,2013-06-03 00:00:00,
2013-06-02 14:10:00,74.9,72.4,30.08,SE,136,8.0,8.0,92,0.00,,,0.00,162,Wunderground v.1.15,2013-06-03 00:10:00,
2013-06-02 14:15:00,74.8,72.3,30.08,ENE,78,8.0,11.0,92,0.00,,,0.00,181,Wunderground v.1.15,2013-06-03 00:15:00,
2013-06-02 14:20:00,74.8,72.0,30.08,East,101,9.0,9.0,91,0.00,,,0.00,218,Wunderground v.1.15,2013-06-03 00:20:00,
2013-06-02 14:25:00,74.9,72.1,30.08,SE,130,8.0,9.0,91,0.00,,,0.00,183,Wunderground v.1.15,2013-06-03 00:25:00,
2013-06-02 14:34:00,74.6,72.1,30.07,ENE,76,9.0,9.0,92,0.00,,,0.00,190,Wunderground v.1.15,2013-06-03 00:34:00,
2013-06-02 14:40:00,74.5,72.0,30.07,ESE,113,9.0,9.0,92,0.00,,,0.00,223,Wunderground v.1.15,2013-06-03 00:40:00,
2013-06-02 14:45:00,74.7,72.2,30.07,ESE,105,8.0,9.0,92,0.00,,,0.00,218,Wunderground v.1.15,2013-06-03 00:45:00,
2013-06-02 14:50:00,74.7,72.2,30.07,ENE,65,8.0,10.0,92,0.00,,,0.00,248,Wunderground v.1.15,2013-06-03 00:50:00,
2013-06-02 15:00:00,75.0,72.5,30.07,East,93,5.0,5.0,92,0.00,,,0.00,195,Wunderground v.1.15,2013-06-03 01:00:00,
2013-06-02 15:09:00,74.8,72.0,30.07,East,97,8.0,8.0,91,0.00,,,0.00,169,Wunderground v.1.15,2013-06-03 01:09:00,
2013-06-02 15:15:00,74.9,71.8,30.07,ESE,105,7.0,8.0,90,0.00,,,0.00,181,Wunderground v.1.15,2013-06-03 01:15:00,
2013-06-02 15:20:00,74.9,71.8,30.07,ESE,108,7.0,7.0,90,0.00,,,0.00,197,Wunderground v.1.15,2013-06-03 01:20:00,
2013-06-02 15:25:00,75.0,71.9,30.06,ESE,102,8.0,8.0,90,0.00,,,0.00,211,Wunderground v.1.15,2013-06-03 01:25:00,
2013-06-02 15:34:00,74.8,72.0,30.06,SE,132,9.0,15.0,91,0.00,,,0.00,171,Wunderground v.1.15,2013-06-03 01:34:00,
2013-06-02 15:39:00,74.8,71.7,30.06,SE,132,9.0,14.0,90,0.00,,,0.00,207,Wunderground v.1.15,2013-06-03 01:39:00,
2013-06-02 15:45:00,74.8,71.7,30.06,ESE,117,10.0,19.0,90,0.00,,,0.00,243,Wunderground v.1.15,2013-06-03 01:45:00,
2013-06-02 15:50:00,74.9,71.4,30.05,ESE,106,10.0,10.0,89,0.00,,,0.00,227,Wunderground v.1.15,2013-06-03 01:50:00,
2013-06-02 16:00:00,75.4,71.9,30.05,NE,43,6.0,6.0,89,0.00,,,0.00,193,Wunderground v.1.15,2013-06-03 02:00:00,
2013-06-02 16:09:00,75.2,72.1,30.05,SE,133,8.0,11.0,90,0.00,,,0.00,248,Wunderground v.1.15,2013-06-03 02:09:00,
2013-06-02 16:15:00,75.0,71.9,30.05,ENE,68,9.0,11.0,90,0.00,,,0.00,244,Wunderground v.1.15,2013-06-03 02:15:00,
2013-06-02 16:20:00,75.0,71.9,30.05,ESE,123,7.0,7.0,90,0.00,,,0.00,213,Wunderground v.1.15,2013-06-03 02:20:00,
2013-06-02 16:25:00,75.0,72.2,30.04,SE,141,8.0,8.0,91,0.00,,,0.00,183,Wunderground v.1.15,2013-06-03 02:25:00,
2013-06-02 16:34:00,74.9,72.1,30.04,ESE,122,6.0,7.0,91,0.00,,,0.00,139,Wunderground v.1.15,2013-06-03 02:34:00,
2013-06-02 16:40:00,74.9,72.1,30.04,East,94,6.0,9.0,91,0.00,,,0.00,130,Wunderground v.1.15,2013-06-03 02:40:00,
2013-06-02 16:45:00,74.8,72.0,30.04,East,96,7.0,9.0,91,0.00,,,0.00,130,Wunderground v.1.15,2013-06-03 02:45:00,
2013-06-02 16:50:00,74.7,72.5,30.04,ESE,121,8.0,14.0,93,0.00,,,0.00,105,Wunderground v.1.15,2013-06-03 02:50:00,
2013-06-02 17:00:00,74.1,72.3,30.04,ESE,115,8.0,8.0,94,0.00,,,0.00,102,Wunderground v.1.15,2013-06-03 03:00:00,
2013-06-02 17:10:00,73.9,72.4,30.05,East,93,6.0,8.0,95,0.00,,,0.00,104,Wunderground v.1.15,2013-06-03 03:10:00,
2013-06-02 17:20:00,73.6,71.8,30.05,ENE,78,8.0,13.0,94,0.00,,,0.00,83,Wunderground v.1.15,2013-06-03 03:20:00,
2013-06-02 17:25:00,73.3,71.5,30.05,ENE,70,9.0,13.0,94,0.00,,,0.00,77,Wunderground v.1.15,2013-06-03 03:25:00,
2013-06-02 17:30:00,73.1,71.6,30.05,East,86,9.0,9.0,95,0.00,,,0.00,58,Wunderground v.1.15,2013-06-03 03:30:00,
2013-06-02 17:39:00,72.9,71.4,30.06,SE,130,7.0,7.0,95,0.00,,,0.00,46,Wunderground v.1.15,2013-06-03 03:39:00,
2013-06-02 17:45:00,73.0,71.2,30.06,ESE,106,7.0,12.0,94,0.00,,,0.00,42,Wunderground v.1.15,2013-06-03 03:45:00,
2013-06-02 17:50:00,73.0,70.9,30.06,East,79,8.0,9.0,93,0.00,,,0.00,37,Wunderground v.1.15,2013-06-03 03:50:00,
2013-06-02 18:00:00,73.2,70.7,30.06,ENE,64,7.0,7.0,92,0.00,,,0.00,32,Wunderground v.1.15,2013-06-03 04:00:00,
2013-06-02 18:05:00,73.2,70.7,30.06,ESE,103,4.0,7.0,92,0.00,,,0.00,26,Wunderground v.1.15,2013-06-03 04:05:00,
2013-06-02 18:09:00,73.3,70.5,30.06,ENE,78,4.0,5.0,91,0.00,,,0.00,25,Wunderground v.1.15,2013-06-03 04:09:00,
2013-06-02 18:14:00,73.5,70.7,30.07,ESE,113,5.0,11.0,91,0.00,,,0.00,21,Wunderground v.1.15,2013-06-03 04:14:00,
2013-06-02 18:20:00,73.6,70.5,30.06,ENE,70,6.0,7.0,90,0.00,,,0.00,25,Wunderground v.1.15,2013-06-03 04:20:00,
2013-06-02 18:25:00,73.6,70.5,30.06,NE,50,7.0,7.0,90,0.00,,,0.00,21,Wunderground v.1.15,2013-06-03 04:25:00,
2013-06-02 18:30:00,73.6,70.5,30.06,ENE,78,6.0,6.0,90,0.00,,,0.00,16,Wunderground v.1.15,2013-06-03 04:30:00,
2013-06-02 18:35:00,73.6,70.5,30.06,NNE,26,5.0,6.0,90,0.00,,,0.00,14,Wunderground v.1.15,2013-06-03 04:35:00,
2013-06-02 18:44:00,73.6,70.5,30.06,ESE,102,3.0,10.0,90,0.00,,,0.00,7,Wunderground v.1.15,2013-06-03 04:44:00,
2013-06-02 18:50:00,73.6,70.5,30.06,ESE,120,4.0,4.0,90,0.00,,,0.00,0,Wunderground v.1.15,2013-06-03 04:50:00,
2013-06-02 18:55:00,73.5,70.4,30.06,ENE,75,2.0,4.0,90,0.00,,,0.00,0,Wunderground v.1.15,2013-06-03 04:55:00,
2013-06-02 19:00:00,73.4,70.3,30.06,ENE,69,1.0,1.0,90,0.00,,,0.00,0,Wunderground v.1.15,2013-06-03 05:00:00,
2013-06-02 19:10:00,73.2,70.1,30.06,NW,319,2.0,4.0,90,0.00,,,0.00,0,Wunderground v.1.15,2013-06-03 05:10:00,
2013-06-02 19:15:00,73.1,70.0,30.06,NW,319,2.0,4.0,90,0.00,,,0.00,0,Wunderground v.1.15,2013-06-03 05:15:00,
2013-06-02 19:25:00,73.0,69.9,30.07,NW,319,0.0,2.0,90,0.00,,,0.00,0,Wunderground v.1.15,2013-06-03 05:25:00,
2013-06-02 19:30:00,72.8,69.7,30.07,West,271,1.0,1.0,90,0.00,,,0.00,0,Wunderground v.1.15,2013-06-03 05:30:00,
2013-06-02 19:40:00,72.7,69.6,30.07,SW,234,1.0,2.0,90,0.00,,,0.00,0,Wunderground v.1.15,2013-06-03 05:40:00,
2013-06-02 19:45:00,72.7,69.6,30.07,SW,234,1.0,2.0,90,0.00,,,0.00,0,Wunderground v.1.15,2013-06-03 05:45:00,
2013-06-02 19:50:00,72.6,69.2,30.07,SW,234,1.0,1.0,89,0.00,,,0.00,0,Wunderground v.1.15,2013-06-03 05:50:00,
2013-06-02 20:00:00,72.6,69.2,30.08,SW,234,1.0,4.0,89,0.00,,,0.00,0,Wunderground v.1.15,2013-06-03 06:00:00,
2013-06-02 20:09:00,72.2,69.1,30.08,SW,234,1.0,1.0,90,0.00,,,0.00,0,Wunderground v.1.15,2013-06-03 06:09:00,
2013-06-02 20:15:00,72.0,69.2,30.08,SW,234,1.0,3.0,91,0.00,,,0.00,0,Wunderground v.1.15,2013-06-03 06:15:00,
2013-06-02 20:20:00,72.0,69.2,30.09,SW,234,2.0,2.0,91,0.00,,,0.00,0,Wunderground v.1.15,2013-06-03 06:20:00,
2013-06-02 20:25:00,71.9,69.1,30.09,SW,234,1.0,2.0,91,0.00,,,0.00,0,Wunderground v.1.15,2013-06-03 06:25:00,
2013-06-02 20:30:00,71.8,69.3,30.09,SW,234,0.0,3.0,92,0.00,,,0.00,0,Wunderground v.1.15,2013-06-03 06:30:00,
2013-06-02 20:40:00,71.6,69.2,30.09,SW,234,3.0,4.0,92,0.00,,,0.00,0,Wunderground v.1.15,2013-06-03 06:40:00,
2013-06-02 20:45:00,71.6,69.2,30.09,SW,234,3.0,4.0,92,0.00,,,0.00,0,Wunderground v.1.15,2013-06-03 06:45:00,
2013-06-02 20:50:00,71.6,68.8,30.10,SW,234,2.0,2.0,91,0.00,,,0.00,0,Wunderground v.1.15,2013-06-03 06:50:00,
2013-06-02 21:00:00,71.5,68.7,30.10,SW,234,1.0,1.0,91,0.00,,,0.00,0,Wunderground v.1.15,2013-06-03 07:00:00,
2013-06-02 21:09:00,71.3,68.9,30.10,SW,236,1.0,1.0,92,0.00,,,0.00,0,Wunderground v.1.15,2013-06-03 07:09:00,
2013-06-02 21:14:00,71.2,69.1,30.10,SW,236,1.0,1.0,93,0.00,,,0.00,0,Wunderground v.1.15,2013-06-03 07:14:00,
2013-06-02 21:20:00,71.2,69.1,30.10,SW,236,2.0,2.0,93,0.00,,,0.00,0,Wunderground v.1.15,2013-06-03 07:20:00,
2013-06-02 21:25:00,71.1,68.7,30.11,WSW,240,2.0,2.0,92,0.00,,,0.00,0,Wunderground v.1.15,2013-06-03 07:25:00,
2013-06-02 21:30:00,71.2,68.8,30.11,WSW,240,1.0,1.0,92,0.00,,,0.00,0,Wunderground v.1.15,2013-06-03 07:30:00,
2013-06-02 21:35:00,71.1,68.7,30.11,WSW,241,0.0,1.0,92,0.00,,,0.00,0,Wunderground v.1.15,2013-06-03 07:35:00,
2013-06-02 21:44:00,70.8,68.4,30.11,WSW,241,0.0,1.0,92,0.00,,,0.00,0,Wunderground v.1.15,2013-06-03 07:44:00,
2013-06-02 21:50:00,70.7,68.6,30.12,WSW,241,0.0,0.0,93,0.00,,,0.00,0,Wunderground v.1.15,2013-06-03 07:50:00,
2013-06-02 21:55:00,70.7,68.6,30.12,ENE,61,0.0,2.0,93,0.00,,,0.00,0,Wunderground v.1.15,2013-06-03 07:55:00,
2013-06-02 22:00:00,70.5,68.1,30.12,NNE,19,1.0,1.0,92,0.00,,,0.00,0,Wunderground v.1.15,2013-06-03 08:00:00,
2013-06-02 22:10:00,71.2,67.5,30.12,SE,134,3.0,9.0,88,0.00,,,0.00,0,Wunderground v.1.15,2013-06-03 08:10:00,
2013-06-02 22:15:00,71.5,67.1,30.12,East,85,5.0,9.0,86,0.00,,,0.00,0,Wunderground v.1.15,2013-06-03 08:15:00,
2013-06-02 22:24:00,71.6,66.8,30.12,NNE,32,2.0,4.0,85,0.00,,,0.00,0,Wunderground v.1.15,2013-06-03 08:24:00,
2013-06-02 22:30:00,71.5,66.4,30.12,ENE,78,2.0,2.0,84,0.00,,,0.00,0,Wunderground v.1.15,2013-06-03 08:30:00,
2013-06-02 22:35:00,71.4,66.3,30.11,ENE,78,1.0,2.0,84,0.00,,,0.00,0,Wunderground v.1.15,2013-06-03 08:35:00,
2013-06-02 22:40:00,71.3,66.6,30.12,ENE,61,1.0,5.0,85,0.00,,,0.00,0,Wunderground v.1.15,2013-06-03 08:40:00,
2013-06-02 22:49:00,71.0,67.3,30.14,NNE,13,6.0,6.0,88,0.00,,,0.00,0,Wunderground v.1.15,2013-06-03 08:49:00,
2013-06-02 22:54:00,71.1,67.4,30.14,NNW,338,6.0,7.0,88,0.00,,,0.00,0,Wunderground v.1.15,2013-06-03 08:54:00,
2013-06-02 23:00:00,71.3,67.2,30.14,North,5,6.0,6.0,87,0.00,,,0.00,0,Wunderground v.1.15,2013-06-03 09:00:00,
2013-06-02 23:09:00,71.2,66.5,30.14,NNW,334,5.0,5.0,85,0.00,,,0.00,0,Wunderground v.1.15,2013-06-03 09:09:00,
2013-06-02 23:14:00,71.3,66.6,30.13,NNW,340,6.0,7.0,85,0.00,,,0.00,0,Wunderground v.1.15,2013-06-03 09:14:00,
2013-06-02 23:20:00,71.4,66.3,30.13,North,360,6.0,6.0,84,0.00,,,0.00,0,Wunderground v.1.15,2013-06-03 09:20:00,
2013-06-02 23:25:00,71.4,66.0,30.13,NNW,347,4.0,6.0,83,0.00,,,0.00,0,Wunderground v.1.15,2013-06-03 09:25:00,
2013-06-02 23:35:00,72.0,65.8,30.13,NE,56,3.0,6.0,81,0.00,,,0.00,0,Wunderground v.1.15,2013-06-03 09:35:00,
2013-06-02 23:40:00,72.2,65.7,30.11,NNE,30,5.0,9.0,80,0.00,,,0.00,0,Wunderground v.1.15,2013-06-03 09:40:00,
2013-06-02 23:45:00,72.4,65.9,30.12,NE,50,5.0,9.0,80,0.00,,,0.00,0,Wunderground v.1.15,2013-06-03 09:45:00,
2013-06-02 23:54:00,72.0,66.2,30.11,NNE,30,2.0,4.0,82,0.00,,,0.00,0,Wunderground v.1.15,2013-06-03 09:54:00,